sensor_id;sensor_type;location;lat;lon;timestamp;pressure;altitude;pressure_sealevel;temperature;humidity
14612;BME280;7392;52.078;11.650;2022-12-18T00:01:29;102453.38;;;-8.09;100.00
14612;BME280;7392;52.078;11.650;2022-12-18T00:03:57;102454.88;;;-8.11;100.00
14612;BME280;7392;52.078;11.650;2022-12-18T00:06:27;102449.41;;;-8.14;100.00
14612;BME280;7392;52.078;11.650;2022-12-18T00:08:57;102445.78;;;-8.16;100.00
14612;BME280;7392;52.078;11.650;2022-12-18T00:11:27;102440.75;;;-8.23;100.00
14612;BME280;7392;52.078;11.650;2022-12-18T00:13:57;102433.63;;;-8.26;100.00
14612;BME280;7392;52.078;11.650;2022-12-18T00:16:27;102440.16;;;-8.30;100.00
14612;BME280;7392;52.078;11.650;2022-12-18T00:18:57;102440.72;;;-8.32;100.00
14612;BME280;7392;52.078;11.650;2022-12-18T00:21:26;102438.94;;;-8.33;100.00
14612;BME280;7392;52.078;11.650;2022-12-18T00:23:54;102445.88;;;-8.32;100.00
14612;BME280;7392;52.078;11.650;2022-12-18T00:26:24;102442.56;;;-8.31;100.00
14612;BME280;7392;52.078;11.650;2022-12-18T00:29:00;102452.09;;;-8.30;100.00
14612;BME280;7392;52.078;11.650;2022-12-18T00:31:29;102456.97;;;-8.33;100.00
14612;BME280;7392;52.078;11.650;2022-12-18T00:34:00;102461.03;;;-8.35;100.00
14612;BME280;7392;52.078;11.650;2022-12-18T00:36:30;102453.19;;;-8.37;100.00
14612;BME280;7392;52.078;11.650;2022-12-18T00:38:59;102466.06;;;-8.37;100.00
14612;BME280;7392;52.078;11.650;2022-12-18T00:41:27;102453.19;;;-8.37;100.00
14612;BME280;7392;52.078;11.650;2022-12-18T00:44:16;102448.16;;;-8.35;100.00
14612;BME280;7392;52.078;11.650;2022-12-18T00:46:45;102442.09;;;-8.36;100.00
14612;BME280;7392;52.078;11.650;2022-12-18T00:49:14;102448.16;;;-8.35;100.00
14612;BME280;7392;52.078;11.650;2022-12-18T00:51:42;102452.41;;;-8.36;100.00
14612;BME280;7392;52.078;11.650;2022-12-18T00:54:10;102439.34;;;-8.37;100.00
14612;BME280;7392;52.078;11.650;2022-12-18T00:56:39;102443.31;;;-8.41;100.00
14612;BME280;7392;52.078;11.650;2022-12-18T00:59:16;102447.44;;;-8.43;100.00
14612;BME280;7392;52.078;11.650;2022-12-18T01:01:44;102454.09;;;-8.45;100.00
14612;BME280;7392;52.078;11.650;2022-12-18T01:04:13;102455.75;;;-8.46;100.00
14612;BME280;7392;52.078;11.650;2022-12-18T01:06:44;102465.16;;;-8.46;100.00
14612;BME280;7392;52.078;11.650;2022-12-18T01:09:12;102472.16;;;-8.45;100.00
14612;BME280;7392;52.078;11.650;2022-12-18T01:11:40;102468.50;;;-8.47;100.00
14612;BME280;7392;52.078;11.650;2022-12-18T01:14:10;102466.53;;;-8.50;100.00
14612;BME280;7392;52.078;11.650;2022-12-18T01:16:39;102473.03;;;-8.53;100.00
14612;BME280;7392;52.078;11.650;2022-12-18T01:19:07;102468.78;;;-8.53;100.00
14612;BME280;7392;52.078;11.650;2022-12-18T01:21:34;102478.50;;;-8.50;100.00
14612;BME280;7392;52.078;11.650;2022-12-18T01:24:04;102473.50;;;-8.49;100.00
14612;BME280;7392;52.078;11.650;2022-12-18T01:26:32;102476.84;;;-8.50;100.00
14612;BME280;7392;52.078;11.650;2022-12-18T01:29:00;102486.41;;;-8.49;100.00
14612;BME280;7392;52.078;11.650;2022-12-18T01:31:30;102495.03;;;-8.48;100.00
14612;BME280;7392;52.078;11.650;2022-12-18T01:34:03;102489.72;;;-8.50;100.00
14612;BME280;7392;52.078;11.650;2022-12-18T01:36:35;102491.25;;;-8.52;100.00
14612;BME280;7392;52.078;11.650;2022-12-18T01:39:07;102489.41;;;-8.53;100.00
14612;BME280;7392;52.078;11.650;2022-12-18T01:41:37;102495.34;;;-8.54;100.00
14612;BME280;7392;52.078;11.650;2022-12-18T01:44:50;102495.16;;;-8.55;100.00
14612;BME280;7392;52.078;11.650;2022-12-18T01:47:22;102494.41;;;-8.54;100.00
14612;BME280;7392;52.078;11.650;2022-12-18T01:49:52;102512.28;;;-8.56;100.00
14612;BME280;7392;52.078;11.650;2022-12-18T01:52:21;102507.75;;;-8.58;100.00
14612;BME280;7392;52.078;11.650;2022-12-18T01:54:50;102518.94;;;-8.58;100.00
14612;BME280;7392;52.078;11.650;2022-12-18T01:57:21;102513.06;;;-8.57;100.00
14612;BME280;7392;52.078;11.650;2022-12-18T01:59:52;102508.63;;;-8.58;100.00
14612;BME280;7392;52.078;11.650;2022-12-18T02:02:21;102517.28;;;-8.57;100.00
14612;BME280;7392;52.078;11.650;2022-12-18T02:04:49;102519.09;;;-8.56;100.00
14612;BME280;7392;52.078;11.650;2022-12-18T02:07:25;102508.81;;;-8.56;100.00
14612;BME280;7392;52.078;11.650;2022-12-18T02:09:59;102509.69;;;-8.56;100.00
14612;BME280;7392;52.078;11.650;2022-12-18T02:12:33;102510.47;;;-8.57;100.00
14612;BME280;7392;52.078;11.650;2022-12-18T02:15:06;102521.69;;;-8.56;100.00
14612;BME280;7392;52.078;11.650;2022-12-18T02:17:41;102516.38;;;-8.58;100.00
14612;BME280;7392;52.078;11.650;2022-12-18T02:20:14;102511.06;;;-8.59;100.00
14612;BME280;7392;52.078;11.650;2022-12-18T02:22:53;102500.59;;;-8.61;100.00
14612;BME280;7392;52.078;11.650;2022-12-18T02:25:40;102512.56;;;-8.61;100.00
14612;BME280;7392;52.078;11.650;2022-12-18T02:28:19;102492.56;;;-8.64;100.00
14612;BME280;7392;52.078;11.650;2022-12-18T02:30:51;102497.72;;;-8.64;100.00
14612;BME280;7392;52.078;11.650;2022-12-18T02:33:22;102489.84;;;-8.66;100.00
14612;BME280;7392;52.078;11.650;2022-12-18T02:35:51;102491.63;;;-8.65;100.00
14612;BME280;7392;52.078;11.650;2022-12-18T02:38:22;102484.69;;;-8.66;100.00
14612;BME280;7392;52.078;11.650;2022-12-18T02:40:53;102498.47;;;-8.65;100.00
14612;BME280;7392;52.078;11.650;2022-12-18T02:43:23;102490.00;;;-8.64;100.00
14612;BME280;7392;52.078;11.650;2022-12-18T02:45:54;102490.88;;;-8.63;100.00
14612;BME280;7392;52.078;11.650;2022-12-18T02:48:27;102485.91;;;-8.62;100.00
14612;BME280;7392;52.078;11.650;2022-12-18T02:51:03;102478.16;;;-8.62;100.00
14612;BME280;7392;52.078;11.650;2022-12-18T02:53:40;102483.47;;;-8.60;100.00
14612;BME280;7392;52.078;11.650;2022-12-18T02:56:14;102494.69;;;-8.60;100.00
14612;BME280;7392;52.078;11.650;2022-12-18T02:58:53;102496.38;;;-8.60;100.00
14612;BME280;7392;52.078;11.650;2022-12-18T03:01:40;102493.00;;;-8.59;100.00
14612;BME280;7392;52.078;11.650;2022-12-18T03:04:14;102496.53;;;-8.59;100.00
14612;BME280;7392;52.078;11.650;2022-12-18T03:06:47;102497.44;;;-8.58;100.00
14612;BME280;7392;52.078;11.650;2022-12-18T03:09:19;102500.00;;;-8.58;100.00
14612;BME280;7392;52.078;11.650;2022-12-18T03:11:55;102493.78;;;-8.60;100.00
14612;BME280;7392;52.078;11.650;2022-12-18T03:14:44;102493.78;;;-8.60;100.00
14612;BME280;7392;52.078;11.650;2022-12-18T03:17:16;102502.25;;;-8.61;100.00
14612;BME280;7392;52.078;11.650;2022-12-18T03:19:46;102512.72;;;-8.60;100.00
14612;BME280;7392;52.078;11.650;2022-12-18T03:22:15;102517.00;;;-8.60;100.00
14612;BME280;7392;52.078;11.650;2022-12-18T03:24:48;102520.13;;;-8.63;100.00
14612;BME280;7392;52.078;11.650;2022-12-18T03:27:20;102527.72;;;-8.65;100.00
14612;BME280;7392;52.078;11.650;2022-12-18T03:30:00;102530.75;;;-8.69;100.00
14612;BME280;7392;52.078;11.650;2022-12-18T03:32:39;102529.97;;;-8.68;100.00
14612;BME280;7392;52.078;11.650;2022-12-18T03:35:12;102523.00;;;-8.69;100.00
14612;BME280;7392;52.078;11.650;2022-12-18T03:37:41;102527.25;;;-8.69;100.00
14612;BME280;7392;52.078;11.650;2022-12-18T03:40:09;102526.94;;;-8.72;100.00
14612;BME280;7392;52.078;11.650;2022-12-18T03:42:43;102514.78;;;-8.73;100.00
14612;BME280;7392;52.078;11.650;2022-12-18T03:45:19;102517.22;;;-8.75;100.00
14612;BME280;7392;52.078;11.650;2022-12-18T03:47:58;102525.72;;;-8.76;100.00
14612;BME280;7392;52.078;11.650;2022-12-18T03:50:37;102525.38;;;-8.79;100.00
14612;BME280;7392;52.078;11.650;2022-12-18T03:53:19;102526.75;;;-8.82;100.00
14612;BME280;7392;52.078;11.650;2022-12-18T03:55:52;102527.47;;;-8.84;100.00
14612;BME280;7392;52.078;11.650;2022-12-18T03:58:23;102508.53;;;-8.84;100.00
14612;BME280;7392;52.078;11.650;2022-12-18T04:01:03;102510.97;;;-8.86;100.00
14612;BME280;7392;52.078;11.650;2022-12-18T04:03:34;102516.84;;;-8.87;100.00
14612;BME280;7392;52.078;11.650;2022-12-18T04:06:06;102518.53;;;-8.87;100.00
14612;BME280;7392;52.078;11.650;2022-12-18T04:08:37;102514.28;;;-8.87;100.00
14612;BME280;7392;52.078;11.650;2022-12-18T04:11:08;102515.94;;;-8.87;100.00
14612;BME280;7392;52.078;11.650;2022-12-18T04:13:38;102496.84;;;-8.89;100.00
14612;BME280;7392;52.078;11.650;2022-12-18T04:16:14;102491.69;;;-8.89;100.00
14612;BME280;7392;52.078;11.650;2022-12-18T04:18:44;102496.84;;;-8.89;100.00
14612;BME280;7392;52.078;11.650;2022-12-18T04:21:13;102505.31;;;-8.90;100.00
14612;BME280;7392;52.078;11.650;2022-12-18T04:23:41;102504.56;;;-8.89;100.00
14612;BME280;7392;52.078;11.650;2022-12-18T04:26:09;102505.31;;;-8.90;100.00
14612;BME280;7392;52.078;11.650;2022-12-18T04:29:08;102491.53;;;-8.91;100.00
14612;BME280;7392;52.078;11.650;2022-12-18T04:31:37;102486.22;;;-8.92;100.00
14612;BME280;7392;52.078;11.650;2022-12-18T04:34:06;102489.41;;;-8.95;100.00
14612;BME280;7392;52.078;11.650;2022-12-18T04:36:39;102485.72;;;-8.97;100.00
14612;BME280;7392;52.078;11.650;2022-12-18T04:39:07;102491.50;;;-8.99;100.00
14612;BME280;7392;52.078;11.650;2022-12-18T04:41:35;102493.00;;;-9.01;100.00
14612;BME280;7392;52.078;11.650;2022-12-18T04:44:04;102493.91;;;-9.01;100.00
14612;BME280;7392;52.078;11.650;2022-12-18T04:46:32;102497.84;;;-9.05;100.00
14612;BME280;7392;52.078;11.650;2022-12-18T04:49:01;102506.13;;;-9.07;100.00
14612;BME280;7392;52.078;11.650;2022-12-18T04:51:29;102519.94;;;-9.07;100.00
14612;BME280;7392;52.078;11.650;2022-12-18T04:53:57;102531.16;;;-9.06;100.00
14612;BME280;7392;52.078;11.650;2022-12-18T04:56:25;102528.41;;;-9.08;100.00
14612;BME280;7392;52.078;11.650;2022-12-18T04:58:52;102527.50;;;-9.08;100.00
14612;BME280;7392;52.078;11.650;2022-12-18T05:01:20;102532.66;;;-9.08;100.00
14612;BME280;7392;52.078;11.650;2022-12-18T05:03:48;102533.41;;;-9.09;100.00
14612;BME280;7392;52.078;11.650;2022-12-18T05:06:17;102529.16;;;-9.09;100.00
14612;BME280;7392;52.078;11.650;2022-12-18T05:08:45;102536.88;;;-9.09;100.00
14612;BME280;7392;52.078;11.650;2022-12-18T05:11:14;102546.44;;;-9.08;100.00
14612;BME280;7392;52.078;11.650;2022-12-18T05:13:43;102543.88;;;-9.08;100.00
14612;BME280;7392;52.078;11.650;2022-12-18T05:16:12;102550.69;;;-9.08;100.00
14612;BME280;7392;52.078;11.650;2022-12-18T05:18:40;102541.28;;;-9.08;100.00
14612;BME280;7392;52.078;11.650;2022-12-18T05:21:08;102542.97;;;-9.08;100.00
14612;BME280;7392;52.078;11.650;2022-12-18T05:23:37;102544.59;;;-9.09;100.00
14612;BME280;7392;52.078;11.650;2022-12-18T05:26:07;102535.22;;;-9.08;100.00
14612;BME280;7392;52.078;11.650;2022-12-18T05:28:36;102534.47;;;-9.07;100.00
14612;BME280;7392;52.078;11.650;2022-12-18T05:31:04;102537.03;;;-9.07;100.00
14612;BME280;7392;52.078;11.650;2022-12-18T05:33:34;102532.81;;;-9.07;100.00
14612;BME280;7392;52.078;11.650;2022-12-18T05:36:03;102532.06;;;-9.06;100.00
14612;BME280;7392;52.078;11.650;2022-12-18T05:38:33;102536.47;;;-9.05;100.00
14612;BME280;7392;52.078;11.650;2022-12-18T05:41:04;102536.63;;;-9.03;100.00
14612;BME280;7392;52.078;11.650;2022-12-18T05:43:34;102538.28;;;-9.04;100.00
14612;BME280;7392;52.078;11.650;2022-12-18T05:46:06;102535.69;;;-9.04;100.00
14612;BME280;7392;52.078;11.650;2022-12-18T05:48:34;102539.22;;;-9.03;100.00
14612;BME280;7392;52.078;11.650;2022-12-18T05:51:07;102536.63;;;-9.03;100.00
14612;BME280;7392;52.078;11.650;2022-12-18T05:53:36;102540.09;;;-9.03;100.00
14612;BME280;7392;52.078;11.650;2022-12-18T05:56:09;102543.59;;;-9.02;100.00
14612;BME280;7392;52.078;11.650;2022-12-18T05:58:37;102559.22;;;-9.00;100.00
14612;BME280;7392;52.078;11.650;2022-12-18T06:01:10;102555.00;;;-9.00;100.00
14612;BME280;7392;52.078;11.650;2022-12-18T06:03:40;102557.41;;;-9.01;100.00
14612;BME280;7392;52.078;11.650;2022-12-18T06:06:16;102561.63;;;-9.02;100.00
14612;BME280;7392;52.078;11.650;2022-12-18T06:08:44;102555.41;;;-9.04;100.00
14612;BME280;7392;52.078;11.650;2022-12-18T06:11:16;102550.25;;;-9.04;100.00
14612;BME280;7392;52.078;11.650;2022-12-18T06:13:45;102550.09;;;-9.06;100.00
14612;BME280;7392;52.078;11.650;2022-12-18T06:16:12;102559.47;;;-9.06;100.00
14612;BME280;7392;52.078;11.650;2022-12-18T06:18:40;102546.13;;;-9.11;100.00
14612;BME280;7392;52.078;11.650;2022-12-18T06:21:08;102549.28;;;-9.13;100.00
14612;BME280;7392;52.078;11.650;2022-12-18T06:23:36;102550.81;;;-9.15;100.00
14612;BME280;7392;52.078;11.650;2022-12-18T06:26:05;102546.97;;;-9.19;100.00
14612;BME280;7392;52.078;11.650;2022-12-18T06:28:35;102547.56;;;-9.22;100.00
14612;BME280;7392;52.078;11.650;2022-12-18T06:31:04;102546.34;;;-9.25;100.00
14612;BME280;7392;52.078;11.650;2022-12-18T06:33:32;102549.47;;;-9.28;100.00
14612;BME280;7392;52.078;11.650;2022-12-18T06:36:01;102542.19;;;-9.32;100.00
14612;BME280;7392;52.078;11.650;2022-12-18T06:38:30;102553.06;;;-9.34;100.00
14612;BME280;7392;52.078;11.650;2022-12-18T06:40:58;102556.25;;;-9.37;100.00
14612;BME280;7392;52.078;11.650;2022-12-18T06:43:26;102556.81;;;-9.40;100.00
14612;BME280;7392;52.078;11.650;2022-12-18T06:45:59;102562.56;;;-9.42;100.00
14612;BME280;7392;52.078;11.650;2022-12-18T06:48:27;102562.97;;;-9.46;100.00
14612;BME280;7392;52.078;11.650;2022-12-18T06:50:55;102564.47;;;-9.48;100.00
14612;BME280;7392;52.078;11.650;2022-12-18T06:53:23;102572.78;;;-9.51;100.00
14612;BME280;7392;52.078;11.650;2022-12-18T06:55:51;102569.16;;;-9.53;100.00
14612;BME280;7392;52.078;11.650;2022-12-18T06:58:19;102564.56;;;-9.55;100.00
14612;BME280;7392;52.078;11.650;2022-12-18T07:00:47;102570.44;;;-9.56;100.00
14612;BME280;7392;52.078;11.650;2022-12-18T07:03:16;102572.13;;;-9.57;100.00
14612;BME280;7392;52.078;11.650;2022-12-18T07:05:44;102572.72;;;-9.60;100.00
14612;BME280;7392;52.078;11.650;2022-12-18T07:08:11;102579.50;;;-9.60;100.00
14612;BME280;7392;52.078;11.650;2022-12-18T07:10:42;102583.56;;;-9.62;100.00
14612;BME280;7392;52.078;11.650;2022-12-18T07:13:15;102576.63;;;-9.63;100.00
14612;BME280;7392;52.078;11.650;2022-12-18T07:15:43;102589.31;;;-9.65;100.00
14612;BME280;7392;52.078;11.650;2022-12-18T07:18:11;102588.22;;;-9.67;100.00
14612;BME280;7392;52.078;11.650;2022-12-18T07:20:40;102591.38;;;-9.69;100.00
14612;BME280;7392;52.078;11.650;2022-12-18T07:23:08;102599.84;;;-9.70;100.00
14612;BME280;7392;52.078;11.650;2022-12-18T07:25:36;102603.19;;;-9.71;100.00
14612;BME280;7392;52.078;11.650;2022-12-18T07:28:04;102607.25;;;-9.73;100.00
14612;BME280;7392;52.078;11.650;2022-12-18T07:30:32;102614.97;;;-9.73;100.00
14612;BME280;7392;52.078;11.650;2022-12-18T07:33:00;102617.38;;;-9.75;100.00
14612;BME280;7392;52.078;11.650;2022-12-18T07:35:28;102619.19;;;-9.74;100.00
14612;BME280;7392;52.078;11.650;2022-12-18T07:37:57;102636.28;;;-9.74;100.00
14612;BME280;7392;52.078;11.650;2022-12-18T07:40:26;102630.97;;;-9.76;100.00
14612;BME280;7392;52.078;11.650;2022-12-18T07:42:54;102629.91;;;-9.78;100.00
14612;BME280;7392;52.078;11.650;2022-12-18T07:45:22;102630.63;;;-9.79;100.00
14612;BME280;7392;52.078;11.650;2022-12-18T07:47:50;102635.59;;;-9.81;100.00
14612;BME280;7392;52.078;11.650;2022-12-18T07:50:18;102624.22;;;-9.83;100.00
14612;BME280;7392;52.078;11.650;2022-12-18T07:52:46;102630.28;;;-9.82;100.00
14612;BME280;7392;52.078;11.650;2022-12-18T07:55:15;102624.22;;;-9.83;100.00
14612;BME280;7392;52.078;11.650;2022-12-18T07:57:43;102624.84;;;-9.85;100.00
14612;BME280;7392;52.078;11.650;2022-12-18T08:00:18;102633.28;;;-9.86;100.00
14612;BME280;7392;52.078;11.650;2022-12-18T08:02:46;102635.69;;;-9.88;100.00
14612;BME280;7392;52.078;11.650;2022-12-18T08:05:14;102645.81;;;-9.89;100.00
14612;BME280;7392;52.078;11.650;2022-12-18T08:07:42;102662.91;;;-9.90;100.00
14612;BME280;7392;52.078;11.650;2022-12-18T08:10:10;102653.16;;;-9.92;100.00
14612;BME280;7392;52.078;11.650;2022-12-18T08:12:39;102667.88;;;-9.91;100.00
14612;BME280;7392;52.078;11.650;2022-12-18T08:15:08;102656.69;;;-9.92;100.00
14612;BME280;7392;52.078;11.650;2022-12-18T08:17:36;102657.41;;;-9.93;100.00
14612;BME280;7392;52.078;11.650;2022-12-18T08:20:04;102651.38;;;-9.93;100.00
14612;BME280;7392;52.078;11.650;2022-12-18T08:22:33;102661.81;;;-9.92;100.00
14612;BME280;7392;52.078;11.650;2022-12-18T08:25:02;102663.47;;;-9.92;100.00
14612;BME280;7392;52.078;11.650;2022-12-18T08:27:30;102666.81;;;-9.93;100.00
14612;BME280;7392;52.078;11.650;2022-12-18T08:30:00;102661.81;;;-9.92;100.00
14612;BME280;7392;52.078;11.650;2022-12-18T08:32:28;102665.31;;;-9.91;100.00
14612;BME280;7392;52.078;11.650;2022-12-18T08:34:56;102650.03;;;-9.90;100.00
14612;BME280;7392;52.078;11.650;2022-12-18T08:37:23;102657.34;;;-9.86;100.00
14612;BME280;7392;52.078;11.650;2022-12-18T08:39:51;102660.25;;;-9.83;100.00
14612;BME280;7392;52.078;11.650;2022-12-18T08:42:19;102660.59;;;-9.80;100.00
14612;BME280;7392;52.078;11.650;2022-12-18T08:45:07;102653.38;;;-9.75;100.00
14612;BME280;7392;52.078;11.650;2022-12-18T08:47:35;102656.44;;;-9.70;100.00
14612;BME280;7392;52.078;11.650;2022-12-18T08:50:04;102653.66;;;-9.65;100.00
14612;BME280;7392;52.078;11.650;2022-12-18T08:52:32;102655.06;;;-9.60;100.00
14612;BME280;7392;52.078;11.650;2022-12-18T08:55:00;102649.66;;;-9.54;100.00
14612;BME280;7392;52.078;11.650;2022-12-18T08:57:28;102646.81;;;-9.48;100.00
14612;BME280;7392;52.078;11.650;2022-12-18T08:59:56;102642.91;;;-9.45;100.00
14612;BME280;7392;52.078;11.650;2022-12-18T09:02:25;102649.47;;;-9.40;100.00
14612;BME280;7392;52.078;11.650;2022-12-18T09:04:53;102648.16;;;-9.36;100.00
14612;BME280;7392;52.078;11.650;2022-12-18T09:07:23;102633.81;;;-9.34;100.00
14612;BME280;7392;52.078;11.650;2022-12-18T09:09:51;102638.69;;;-9.28;100.00
14612;BME280;7392;52.078;11.650;2022-12-18T09:12:19;102636.63;;;-9.24;100.00
14612;BME280;7392;52.078;11.650;2022-12-18T09:14:46;102640.25;;;-9.22;100.00
14612;BME280;7392;52.078;11.650;2022-12-18T09:17:14;102637.09;;;-9.19;100.00
14612;BME280;7392;52.078;11.650;2022-12-18T09:19:44;102638.34;;;-9.15;100.00
14612;BME280;7392;52.078;11.650;2022-12-18T09:22:12;102634.28;;;-9.13;100.00
14612;BME280;7392;52.078;11.650;2022-12-18T09:24:40;102630.94;;;-9.12;100.00
14612;BME280;7392;52.078;11.650;2022-12-18T09:27:07;102622.03;;;-9.07;100.00
14612;BME280;7392;52.078;11.650;2022-12-18T09:29:35;102618.28;;;-9.02;100.00
14612;BME280;7392;52.078;11.650;2022-12-18T09:32:03;102605.91;;;-8.97;100.00
14612;BME280;7392;52.078;11.650;2022-12-18T09:34:31;102610.03;;;-8.91;100.00
14612;BME280;7392;52.078;11.650;2022-12-18T09:37:00;102606.44;;;-8.84;100.00
14612;BME280;7392;52.078;11.650;2022-12-18T09:39:28;102597.88;;;-8.76;100.00
14612;BME280;7392;52.078;11.650;2022-12-18T09:41:57;102594.41;;;-8.68;100.00
14612;BME280;7392;52.078;11.650;2022-12-18T09:44:28;102598.13;;;-8.57;100.00
14612;BME280;7392;52.078;11.650;2022-12-18T09:47:03;102600.13;;;-8.46;100.00
14612;BME280;7392;52.078;11.650;2022-12-18T09:49:39;102591.06;;;-8.33;100.00
14612;BME280;7392;52.078;11.650;2022-12-18T09:52:14;102590.63;;;-8.20;100.00
14612;BME280;7392;52.078;11.650;2022-12-18T09:54:47;102581.41;;;-8.10;100.00
14612;BME280;7392;52.078;11.650;2022-12-18T09:57:19;102584.94;;;-8.00;100.00
14612;BME280;7392;52.078;11.650;2022-12-18T09:59:51;102579.97;;;-7.90;100.00
14612;BME280;7392;52.078;11.650;2022-12-18T10:02:23;102581.66;;;-7.82;100.00
14612;BME280;7392;52.078;11.650;2022-12-18T10:05:01;102567.25;;;-7.71;100.00
14612;BME280;7392;52.078;11.650;2022-12-18T10:07:39;102568.44;;;-7.59;100.00
14612;BME280;7392;52.078;11.650;2022-12-18T10:10:19;102568.91;;;-7.45;100.00
14612;BME280;7392;52.078;11.650;2022-12-18T10:12:56;102566.66;;;-7.34;100.00
14612;BME280;7392;52.078;11.650;2022-12-18T10:15:34;102562.69;;;-7.21;100.00
14612;BME280;7392;52.078;11.650;2022-12-18T10:18:14;102573.16;;;-7.11;100.00
14612;BME280;7392;52.078;11.650;2022-12-18T10:20:49;102562.53;;;-7.05;100.00
14612;BME280;7392;52.078;11.650;2022-12-18T10:23:24;102566.75;;;-6.97;100.00
14612;BME280;7392;52.078;11.650;2022-12-18T10:25:59;102560.34;;;-6.92;100.00
14612;BME280;7392;52.078;11.650;2022-12-18T10:28:30;102554.25;;;-6.84;100.00
14612;BME280;7392;52.078;11.650;2022-12-18T10:30:58;102556.97;;;-6.73;100.00
14612;BME280;7392;52.078;11.650;2022-12-18T10:33:29;102557.06;;;-6.63;100.00
14612;BME280;7392;52.078;11.650;2022-12-18T10:35:58;102557.50;;;-6.50;100.00
14612;BME280;7392;52.078;11.650;2022-12-18T10:38:29;102548.78;;;-6.42;100.00
14612;BME280;7392;52.078;11.650;2022-12-18T10:40:59;102557.91;;;-6.36;100.00
14612;BME280;7392;52.078;11.650;2022-12-18T10:43:29;102549.78;;;-6.31;100.00
14612;BME280;7392;52.078;11.650;2022-12-18T10:46:04;102553.88;;;-6.24;100.00
14612;BME280;7392;52.078;11.650;2022-12-18T10:48:34;102560.09;;;-6.22;100.00
14612;BME280;7392;52.078;11.650;2022-12-18T10:51:05;102566.00;;;-6.14;100.00
14612;BME280;7392;52.078;11.650;2022-12-18T10:53:41;102574.31;;;-6.08;100.00
14612;BME280;7392;52.078;11.650;2022-12-18T10:56:10;102569.31;;;-6.07;100.00
14612;BME280;7392;52.078;11.650;2022-12-18T10:58:38;102571.28;;;-6.04;100.00
14612;BME280;7392;52.078;11.650;2022-12-18T11:01:10;102583.13;;;-5.97;100.00
14612;BME280;7392;52.078;11.650;2022-12-18T11:03:39;102589.91;;;-5.89;100.00
14612;BME280;7392;52.078;11.650;2022-12-18T11:06:10;102589.41;;;-5.85;100.00
14612;BME280;7392;52.078;11.650;2022-12-18T11:08:41;102597.75;;;-5.79;100.00
14612;BME280;7392;52.078;11.650;2022-12-18T11:11:19;102594.81;;;-5.73;100.00
14612;BME280;7392;52.078;11.650;2022-12-18T11:13:56;102597.34;;;-5.65;100.00
14612;BME280;7392;52.078;11.650;2022-12-18T11:16:28;102593.06;;;-5.64;100.00
14612;BME280;7392;52.078;11.650;2022-12-18T11:19:20;102588.81;;;-5.64;100.00
14612;BME280;7392;52.078;11.650;2022-12-18T11:21:50;102581.16;;;-5.62;100.00
14612;BME280;7392;52.078;11.650;2022-12-18T11:24:24;102577.53;;;-5.64;100.00
14612;BME280;7392;52.078;11.650;2022-12-18T11:26:55;102567.81;;;-5.67;100.00
14612;BME280;7392;52.078;11.650;2022-12-18T11:29:32;102570.09;;;-5.70;100.00
14612;BME280;7392;52.078;11.650;2022-12-18T11:32:27;102567.00;;;-5.85;100.00
14612;BME280;7392;52.078;11.650;2022-12-18T11:35:03;102561.28;;;-5.91;100.00
14612;BME280;7392;52.078;11.650;2022-12-18T11:37:32;102562.78;;;-5.93;100.00
14612;BME280;7392;52.078;11.650;2022-12-18T11:40:09;102565.38;;;-5.93;100.00
14612;BME280;7392;52.078;11.650;2022-12-18T11:42:45;102566.72;;;-5.88;100.00
14612;BME280;7392;52.078;11.650;2022-12-18T11:45:24;102558.34;;;-5.85;100.00
14612;BME280;7392;52.078;11.650;2022-12-18T11:47:57;102557.69;;;-5.83;100.00
14612;BME280;7392;52.078;11.650;2022-12-18T11:50:31;102558.34;;;-5.85;100.00
14612;BME280;7392;52.078;11.650;2022-12-18T11:53:01;102563.38;;;-5.87;100.00
14612;BME280;7392;52.078;11.650;2022-12-18T11:55:39;102559.22;;;-5.85;100.00
14612;BME280;7392;52.078;11.650;2022-12-18T11:58:15;102547.47;;;-5.81;100.00
14612;BME280;7392;52.078;11.650;2022-12-18T12:00:52;102540.91;;;-5.77;100.00
14612;BME280;7392;52.078;11.650;2022-12-18T12:03:35;102530.44;;;-5.79;100.00
14612;BME280;7392;52.078;11.650;2022-12-18T12:06:11;102524.97;;;-5.82;100.00
14612;BME280;7392;52.078;11.650;2022-12-18T12:08:55;102529.22;;;-5.83;100.00
14612;BME280;7392;52.078;11.650;2022-12-18T12:11:33;102539.56;;;-5.83;100.00
14612;BME280;7392;52.078;11.650;2022-12-18T12:14:15;102536.22;;;-5.82;100.00
14612;BME280;7392;52.078;11.650;2022-12-18T12:16:51;102546.28;;;-5.85;100.00
14612;BME280;7392;52.078;11.650;2022-12-18T12:19:35;102546.00;;;-5.88;100.00
14612;BME280;7392;52.078;11.650;2022-12-18T12:22:11;102542.50;;;-5.88;100.00
14612;BME280;7392;52.078;11.650;2022-12-18T12:24:52;102541.63;;;-5.89;100.00
14612;BME280;7392;52.078;11.650;2022-12-18T12:27:30;102534.75;;;-5.88;100.00
14612;BME280;7392;52.078;11.650;2022-12-18T12:30:04;102532.72;;;-5.82;100.00
14612;BME280;7392;52.078;11.650;2022-12-18T12:32:49;102528.09;;;-5.76;100.00
14612;BME280;7392;52.078;11.650;2022-12-18T12:35:29;102525.19;;;-5.70;100.00
14612;BME280;7392;52.078;11.650;2022-12-18T12:38:06;102505.66;;;-5.67;100.00
14612;BME280;7392;52.078;11.650;2022-12-18T12:40:39;102505.16;;;-5.63;100.00
14612;BME280;7392;52.078;11.650;2022-12-18T12:43:33;102506.69;;;-5.65;100.00
14612;BME280;7392;52.078;11.650;2022-12-18T12:46:04;102502.41;;;-5.64;100.00
14612;BME280;7392;52.078;11.650;2022-12-18T12:48:38;102494.78;;;-5.63;100.00
14612;BME280;7392;52.078;11.650;2022-12-18T12:51:12;102495.22;;;-5.58;100.00
14612;BME280;7392;52.078;11.650;2022-12-18T12:53:42;102497.09;;;-5.47;100.00
14612;BME280;7392;52.078;11.650;2022-12-18T12:56:13;102509.63;;;-5.32;100.00
14612;BME280;7392;52.078;11.650;2022-12-18T12:58:49;102503.84;;;-5.19;100.00
14612;BME280;7392;52.078;11.650;2022-12-18T13:01:26;102498.84;;;-5.08;100.00
14612;BME280;7392;52.078;11.650;2022-12-18T13:04:02;102496.16;;;-4.99;100.00